createdAt,value
2022-12-23T00:00:52.077Z,96
2022-12-23T00:01:52.167Z,96
2022-12-23T00:02:52.191Z,96
2022-12-23T00:03:52.224Z,96
2022-12-23T00:04:52.115Z,96
2022-12-23T00:05:52.059Z,96
2022-12-23T00:06:52.089Z,96
2022-12-23T00:07:52.071Z,96
2022-12-23T00:08:52.110Z,96
2022-12-23T00:09:52.134Z,96
2022-12-23T00:10:52.090Z,96
2022-12-23T00:11:52.076Z,96
2022-12-23T00:12:52.133Z,96
2022-12-23T00:13:52.084Z,96
2022-12-23T00:14:52.121Z,96
2022-12-23T00:15:52.091Z,96
2022-12-23T00:16:52.199Z,96
2022-12-23T00:17:52.077Z,96
2022-12-23T00:18:52.075Z,96
2022-12-23T00:19:52.119Z,96
2022-12-23T00:20:52.161Z,96
2022-12-23T00:21:52.360Z,96
2022-12-23T00:22:52.160Z,96
2022-12-23T00:23:52.113Z,96
2022-12-23T00:24:52.140Z,96
2022-12-23T00:25:52.093Z,96
2022-12-23T00:26:52.108Z,96
2022-12-23T00:27:52.144Z,96
2022-12-23T00:28:52.117Z,96
2022-12-23T00:29:52.140Z,96
2022-12-23T00:30:52.172Z,96
2022-12-23T00:31:52.188Z,96
2022-12-23T00:32:52.150Z,97
2022-12-23T00:33:52.227Z,97
2022-12-23T00:34:52.165Z,97
2022-12-23T00:35:52.237Z,96
2022-12-23T00:36:52.204Z,96
2022-12-23T00:37:52.159Z,96
2022-12-23T00:38:52.198Z,96
2022-12-23T00:39:55.025Z,97
2022-12-23T00:40:52.151Z,97
2022-12-23T00:41:52.179Z,97
2022-12-23T00:42:52.209Z,97
2022-12-23T00:43:52.172Z,97
2022-12-23T00:44:52.247Z,97
2022-12-23T00:45:52.267Z,97
2022-12-23T00:46:52.199Z,97
2022-12-23T00:47:52.162Z,97
2022-12-23T00:48:52.180Z,97
2022-12-23T00:49:52.206Z,97
2022-12-23T00:50:52.231Z,97
2022-12-23T00:51:52.176Z,97
2022-12-23T00:52:52.168Z,97
2022-12-23T00:53:52.156Z,97
2022-12-23T00:54:52.249Z,97
2022-12-23T00:55:52.228Z,97
2022-12-23T00:56:52.153Z,97
2022-12-23T00:57:52.182Z,97
2022-12-23T00:58:52.173Z,97
2022-12-23T00:59:52.214Z,97
2022-12-23T01:00:52.226Z,97
2022-12-23T01:01:52.299Z,97
2022-12-23T01:02:52.284Z,97
2022-12-23T01:03:52.174Z,97
2022-12-23T01:04:52.225Z,97
2022-12-23T01:05:52.192Z,97
2022-12-23T01:06:52.209Z,98
2022-12-23T01:07:52.174Z,98
2022-12-23T01:08:52.282Z,98
2022-12-23T01:09:52.193Z,98
2022-12-23T01:10:52.357Z,98
2022-12-23T01:11:52.183Z,98
2022-12-23T01:12:52.182Z,98
2022-12-23T01:13:52.187Z,98
2022-12-23T01:14:52.198Z,98
2022-12-23T01:15:52.207Z,98
2022-12-23T01:16:52.307Z,98
2022-12-23T01:17:52.198Z,98
2022-12-23T01:18:52.187Z,98
2022-12-23T01:19:52.262Z,98
2022-12-23T01:20:52.302Z,98
2022-12-23T01:21:52.205Z,98
2022-12-23T01:22:52.214Z,98
2022-12-23T01:23:52.208Z,98
2022-12-23T01:24:52.216Z,98
2022-12-23T01:25:52.200Z,98
2022-12-23T01:26:52.239Z,98
2022-12-23T01:27:52.207Z,98
2022-12-23T01:28:52.199Z,98
2022-12-23T01:29:52.234Z,98
2022-12-23T01:30:52.286Z,98
2022-12-23T01:31:52.261Z,98
2022-12-23T01:32:52.225Z,98
2022-12-23T01:33:52.316Z,98
2022-12-23T01:34:52.264Z,98
2022-12-23T01:35:52.302Z,98
2022-12-23T01:36:52.282Z,98
2022-12-23T01:37:52.285Z,98
2022-12-23T01:38:52.224Z,98
2022-12-23T01:39:52.322Z,98
2022-12-23T01:40:52.310Z,98
2022-12-23T01:41:52.297Z,98
2022-12-23T01:42:52.328Z,98
2022-12-23T01:43:52.298Z,98
2022-12-23T01:44:52.301Z,98
2022-12-23T01:45:52.343Z,98
2022-12-23T01:46:52.277Z,98
2022-12-23T01:47:52.646Z,98
2022-12-23T01:48:52.257Z,98
2022-12-23T01:49:52.268Z,98
2022-12-23T01:50:52.283Z,98
2022-12-23T01:51:52.242Z,98
2022-12-23T01:52:52.355Z,98
2022-12-23T01:53:52.451Z,98
2022-12-23T01:54:52.279Z,98
2022-12-23T01:55:52.285Z,98
2022-12-23T01:56:52.288Z,98
2022-12-23T01:57:52.264Z,98
2022-12-23T01:58:52.300Z,98
2022-12-23T01:59:52.456Z,98
2022-12-23T02:00:52.297Z,98
2022-12-23T02:01:52.333Z,98
2022-12-23T02:02:52.348Z,98
2022-12-23T02:03:52.273Z,98
2022-12-23T02:04:52.289Z,98
2022-12-23T02:05:52.264Z,98
2022-12-23T02:06:52.344Z,98
2022-12-23T02:07:52.251Z,98
2022-12-23T02:08:52.278Z,98
2022-12-23T02:09:52.283Z,98
2022-12-23T02:10:52.262Z,98
2022-12-23T02:11:52.271Z,98
2022-12-23T02:12:52.289Z,98
2022-12-23T02:13:52.272Z,98
2022-12-23T02:14:52.314Z,98
2022-12-23T02:15:52.305Z,98
2022-12-23T02:16:52.416Z,98
2022-12-23T02:17:52.290Z,98
2022-12-23T02:18:52.280Z,98
2022-12-23T02:19:52.340Z,98
2022-12-23T02:20:52.300Z,98
2022-12-23T02:21:52.336Z,98
2022-12-23T02:22:52.343Z,98
2022-12-23T02:23:52.341Z,98
2022-12-23T02:24:52.337Z,98
2022-12-23T02:25:52.338Z,98
2022-12-23T02:26:52.393Z,98
2022-12-23T02:27:52.336Z,98
2022-12-23T02:28:52.340Z,98
2022-12-23T02:29:52.386Z,98
2022-12-23T02:30:52.455Z,98
2022-12-23T02:31:52.368Z,98
2022-12-23T02:32:52.331Z,98
2022-12-23T02:33:52.368Z,98
2022-12-23T02:34:52.381Z,98
2022-12-23T02:35:52.329Z,98
2022-12-23T02:36:52.424Z,98
2022-12-23T02:37:52.341Z,98
2022-12-23T02:38:52.435Z,98
2022-12-23T02:39:52.377Z,98
2022-12-23T02:40:52.316Z,98
2022-12-23T02:41:52.331Z,98
2022-12-23T02:42:52.366Z,98
2022-12-23T02:43:52.360Z,99
2022-12-23T02:44:52.461Z,99
2022-12-23T02:45:52.413Z,99
2022-12-23T02:46:52.382Z,98
2022-12-23T02:47:52.409Z,98
2022-12-23T02:48:52.322Z,98
2022-12-23T02:49:52.424Z,98
2022-12-23T02:50:52.506Z,98
2022-12-23T02:51:52.378Z,98
2022-12-23T02:52:52.383Z,98
2022-12-23T02:53:52.374Z,98
2022-12-23T02:54:52.449Z,98
2022-12-23T02:55:52.373Z,98
2022-12-23T02:56:52.394Z,98
2022-12-23T02:57:52.379Z,98
2022-12-23T02:58:52.455Z,98
2022-12-23T02:59:52.429Z,98
2022-12-23T03:00:52.468Z,98
2022-12-23T03:01:52.637Z,98
2022-12-23T03:02:52.623Z,98
2022-12-23T03:03:52.436Z,98
2022-12-23T03:04:52.423Z,98
2022-12-23T03:05:52.389Z,98
2022-12-23T03:06:52.391Z,98
2022-12-23T03:07:52.442Z,98
2022-12-23T03:08:52.408Z,98
2022-12-23T03:09:52.473Z,98
2022-12-23T03:10:52.456Z,98
2022-12-23T03:11:52.441Z,98
2022-12-23T03:12:52.486Z,98
2022-12-23T03:13:52.548Z,98
2022-12-23T03:14:52.489Z,98
2022-12-23T03:15:52.459Z,98
2022-12-23T03:16:52.572Z,98
2022-12-23T03:17:52.463Z,98
2022-12-23T03:18:52.438Z,98
2022-12-23T03:19:52.465Z,98
2022-12-23T03:20:52.454Z,98
2022-12-23T03:21:52.464Z,98
2022-12-23T03:22:52.455Z,98
2022-12-23T03:23:55.634Z,98
2022-12-23T03:24:52.520Z,98
2022-12-23T03:25:52.460Z,98
2022-12-23T03:26:52.528Z,98
2022-12-23T03:27:52.570Z,98
2022-12-23T03:28:52.541Z,98
2022-12-23T03:29:52.680Z,98
2022-12-23T03:30:52.615Z,98
2022-12-23T03:31:52.561Z,98
2022-12-23T03:32:52.605Z,98
2022-12-23T03:33:52.591Z,98
2022-12-23T03:34:52.640Z,98
2022-12-23T03:35:52.647Z,98
2022-12-23T03:36:52.594Z,98
2022-12-23T03:37:52.635Z,98
2022-12-23T03:38:52.607Z,98
2022-12-23T03:39:52.631Z,98
2022-12-23T03:40:52.676Z,98
2022-12-23T03:41:52.657Z,98
2022-12-23T03:42:52.651Z,98
2022-12-23T03:43:52.619Z,98
2022-12-23T03:45:19.556Z,98
2022-12-23T03:45:52.643Z,98
2022-12-23T03:46:52.835Z,98
2022-12-23T03:47:52.565Z,98
2022-12-23T03:48:52.608Z,98
2022-12-23T03:49:52.658Z,98
2022-12-23T03:50:52.628Z,98
2022-12-23T03:51:52.612Z,98
2022-12-23T03:52:52.559Z,98
2022-12-23T03:53:52.577Z,98
2022-12-23T03:54:52.605Z,98
2022-12-23T03:55:52.613Z,98
2022-12-23T03:56:52.606Z,98
2022-12-23T03:57:52.625Z,98
2022-12-23T03:58:52.600Z,98
2022-12-23T03:59:52.609Z,98
2022-12-23T04:00:52.608Z,98
2022-12-23T04:01:52.721Z,98
2022-12-23T04:02:52.766Z,98
2022-12-23T04:03:52.646Z,97
2022-12-23T04:04:52.631Z,97
2022-12-23T04:05:52.829Z,97
2022-12-23T04:06:52.762Z,97
2022-12-23T04:07:52.639Z,97
2022-12-23T04:08:52.698Z,97
2022-12-23T04:09:52.771Z,97
2022-12-23T04:10:52.691Z,97
2022-12-23T04:11:52.698Z,97
2022-12-23T04:12:52.701Z,97
2022-12-23T04:13:52.686Z,96
2022-12-23T04:14:52.781Z,96
2022-12-23T04:15:52.703Z,96
2022-12-23T04:16:52.760Z,96
2022-12-23T04:17:52.696Z,96
2022-12-23T04:18:52.765Z,96
2022-12-23T04:19:52.772Z,96
2022-12-23T04:20:52.706Z,96
2022-12-23T04:21:52.861Z,96
2022-12-23T04:22:52.743Z,96
2022-12-23T04:23:52.708Z,96
2022-12-23T04:24:52.766Z,96
2022-12-23T04:25:52.776Z,96
2022-12-23T04:26:52.759Z,96
2022-12-23T04:27:52.783Z,97
2022-12-23T04:28:52.732Z,97
2022-12-23T04:29:52.801Z,97
2022-12-23T04:30:52.780Z,97
2022-12-23T04:31:52.853Z,97
2022-12-23T04:32:52.730Z,97
2022-12-23T04:33:52.756Z,97
2022-12-23T04:34:52.745Z,96
2022-12-23T04:35:52.749Z,96
2022-12-23T04:36:52.745Z,96
2022-12-23T04:37:52.788Z,96
2022-12-23T04:38:52.765Z,96
2022-12-23T04:39:52.773Z,96
2022-12-23T04:40:52.730Z,96
2022-12-23T04:41:52.838Z,96
2022-12-23T04:42:52.740Z,96
2022-12-23T04:43:53.424Z,96
2022-12-23T04:44:52.910Z,96
2022-12-23T04:45:52.755Z,96
2022-12-23T04:46:52.850Z,96
2022-12-23T04:47:52.812Z,96
2022-12-23T04:48:52.810Z,96
2022-12-23T04:49:52.794Z,96
2022-12-23T04:50:52.754Z,96
2022-12-23T04:51:52.774Z,96
2022-12-23T04:52:52.767Z,96
2022-12-23T04:53:52.756Z,96
2022-12-23T04:54:52.858Z,96
2022-12-23T04:55:52.884Z,96
2022-12-23T04:56:52.867Z,96
2022-12-23T04:57:52.868Z,96
2022-12-23T04:58:52.834Z,96
2022-12-23T04:59:52.917Z,96
2022-12-23T05:00:52.843Z,96
2022-12-23T05:01:52.985Z,96
2022-12-23T05:02:53.032Z,96
2022-12-23T05:03:52.820Z,96
2022-12-23T05:04:52.866Z,96
2022-12-23T05:05:52.832Z,96
2022-12-23T05:06:52.848Z,96
2022-12-23T05:07:52.817Z,96
2022-12-23T05:08:52.824Z,96
2022-12-23T05:09:52.880Z,96
2022-12-23T05:10:52.837Z,96
2022-12-23T05:11:52.810Z,96
2022-12-23T05:12:52.807Z,96
2022-12-23T05:13:52.830Z,96
2022-12-23T05:14:52.889Z,96
2022-12-23T05:15:52.869Z,96
2022-12-23T05:16:52.858Z,96
2022-12-23T05:17:52.822Z,96
2022-12-23T05:18:52.900Z,96
2022-12-23T05:19:53.033Z,96
2022-12-23T05:20:52.884Z,96
2022-12-23T05:21:52.865Z,96
2022-12-23T05:22:52.882Z,96
2022-12-23T05:23:52.863Z,96
2022-12-23T05:24:52.895Z,96
2022-12-23T05:25:53.006Z,96
2022-12-23T05:26:59.609Z,96
2022-12-23T05:27:53.080Z,96
2022-12-23T05:28:53.007Z,96
2022-12-23T05:29:53.056Z,96
2022-12-23T05:30:53.027Z,95
2022-12-23T05:31:53.008Z,95
2022-12-23T05:32:53.009Z,95
2022-12-23T05:33:53.108Z,95
2022-12-23T05:34:53.023Z,95
2022-12-23T05:35:52.969Z,95
2022-12-23T05:36:52.972Z,96
2022-12-23T05:37:53.054Z,96
2022-12-23T05:38:52.991Z,96
2022-12-23T05:39:52.979Z,96
2022-12-23T05:40:53.057Z,96
2022-12-23T05:41:52.981Z,97
2022-12-23T05:42:52.987Z,97
2022-12-23T05:43:52.969Z,97
2022-12-23T05:44:52.975Z,96
2022-12-23T05:45:53.035Z,96
2022-12-23T05:46:52.973Z,96
2022-12-23T05:47:52.925Z,96
2022-12-23T05:48:52.957Z,96
2022-12-23T05:49:52.981Z,96
2022-12-23T05:50:52.955Z,96
2022-12-23T05:51:52.988Z,96
2022-12-23T05:52:52.963Z,96
2022-12-23T05:53:52.936Z,96
2022-12-23T05:54:53.011Z,96
2022-12-23T05:55:52.939Z,96
2022-12-23T05:56:53.027Z,96
2022-12-23T05:57:53.048Z,96
2022-12-23T05:58:53.076Z,96
2022-12-23T05:59:53.100Z,96
2022-12-23T06:00:52.958Z,96
2022-12-23T06:01:53.077Z,96
2022-12-23T06:02:54.041Z,96
2022-12-23T06:03:53.028Z,96
2022-12-23T06:04:53.008Z,96
2022-12-23T06:05:52.967Z,96
2022-12-23T06:06:52.970Z,96
2022-12-23T06:07:52.968Z,96
2022-12-23T06:08:57.580Z,96
2022-12-23T06:09:52.958Z,96
2022-12-23T06:10:52.967Z,96
2022-12-23T06:11:52.994Z,96
2022-12-23T06:12:52.992Z,96
2022-12-23T06:13:52.963Z,96
2022-12-23T06:14:53.008Z,96
2022-12-23T06:15:52.965Z,96
2022-12-23T06:16:53.030Z,96
2022-12-23T06:17:52.985Z,96
2022-12-23T06:18:52.971Z,96
2022-12-23T06:19:52.967Z,97
2022-12-23T06:20:53.024Z,97
2022-12-23T06:21:52.975Z,97
2022-12-23T06:22:52.966Z,96
2022-12-23T06:23:52.965Z,96
2022-12-23T06:24:52.959Z,96
2022-12-23T06:25:53.079Z,96
2022-12-23T06:26:56.918Z,96
2022-12-23T06:27:53.045Z,96
2022-12-23T06:28:53.015Z,96
2022-12-23T06:29:53.026Z,96
2022-12-23T06:30:53.042Z,96
2022-12-23T06:31:53.058Z,96
2022-12-23T06:32:53.030Z,96
2022-12-23T06:33:53.029Z,96
2022-12-23T06:34:53.037Z,96
2022-12-23T06:35:53.100Z,96
2022-12-23T06:36:53.035Z,96
2022-12-23T06:37:53.039Z,96
2022-12-23T06:38:53.032Z,96
2022-12-23T06:39:53.151Z,96
2022-12-23T06:40:53.045Z,96
2022-12-23T06:41:53.064Z,96
2022-12-23T06:42:53.025Z,96
2022-12-23T06:43:54.519Z,96
2022-12-23T06:44:53.261Z,96
2022-12-23T06:45:53.103Z,96
2022-12-23T06:46:53.204Z,96
2022-12-23T06:47:53.074Z,96
2022-12-23T06:48:53.076Z,96
2022-12-23T06:49:53.077Z,96
2022-12-23T06:50:53.081Z,96
2022-12-23T06:51:53.201Z,96
2022-12-23T06:52:53.108Z,96
2022-12-23T06:53:53.076Z,96
2022-12-23T06:54:53.150Z,96
2022-12-23T06:55:53.148Z,96
2022-12-23T06:56:53.114Z,96
2022-12-23T06:57:53.118Z,96
2022-12-23T06:58:53.083Z,96
2022-12-23T06:59:53.212Z,96
2022-12-23T07:00:53.150Z,96
2022-12-23T07:01:53.259Z,96
2022-12-23T07:02:53.292Z,96
2022-12-23T07:03:53.088Z,95
2022-12-23T07:04:53.088Z,95
2022-12-23T07:05:53.061Z,95
2022-12-23T07:06:53.058Z,96
2022-12-23T07:07:53.156Z,96
2022-12-23T07:08:53.143Z,96
2022-12-23T07:09:53.159Z,96
2022-12-23T07:10:53.142Z,97
2022-12-23T07:11:53.131Z,97
2022-12-23T07:12:53.102Z,97
2022-12-23T07:13:53.120Z,97
2022-12-23T07:14:53.106Z,97
2022-12-23T07:15:53.206Z,97
2022-12-23T07:16:53.182Z,96
2022-12-23T07:17:53.111Z,96
2022-12-23T07:18:53.151Z,96
2022-12-23T07:19:53.132Z,96
2022-12-23T07:20:53.119Z,96
2022-12-23T07:21:53.189Z,96
2022-12-23T07:22:53.132Z,96
2022-12-23T07:23:53.191Z,96
2022-12-23T07:24:53.238Z,96
2022-12-23T07:25:53.147Z,96
2022-12-23T07:26:53.106Z,96
2022-12-23T07:27:53.237Z,96
2022-12-23T07:28:53.126Z,96
2022-12-23T07:29:53.147Z,96
2022-12-23T07:30:53.098Z,96
2022-12-23T07:31:53.217Z,96
2022-12-23T07:32:53.152Z,96
2022-12-23T07:33:53.164Z,96
2022-12-23T07:34:53.301Z,96
2022-12-23T07:35:53.135Z,96
2022-12-23T07:36:53.184Z,96
2022-12-23T07:37:53.134Z,96
2022-12-23T07:38:53.103Z,96
2022-12-23T07:39:53.408Z,96
2022-12-23T07:40:53.319Z,96
2022-12-23T07:42:09.300Z,96
2022-12-23T07:42:53.293Z,96
2022-12-23T07:43:53.272Z,96
2022-12-23T07:44:53.275Z,96
2022-12-23T07:45:59.399Z,96
2022-12-23T07:46:53.273Z,96
2022-12-23T07:47:53.254Z,96
2022-12-23T07:48:53.293Z,96
2022-12-23T07:49:53.284Z,96
2022-12-23T07:50:53.267Z,96
2022-12-23T07:51:53.375Z,96
2022-12-23T07:52:53.320Z,96
2022-12-23T07:53:53.275Z,96
2022-12-23T07:54:53.274Z,96
2022-12-23T07:55:56.524Z,96
2022-12-23T07:56:53.259Z,96
2022-12-23T07:57:53.289Z,96
2022-12-23T07:58:53.294Z,97
2022-12-23T07:59:53.229Z,97
2022-12-23T08:00:53.288Z,97
2022-12-23T08:01:53.388Z,97
2022-12-23T08:02:53.293Z,97
2022-12-23T08:03:53.313Z,97
2022-12-23T08:04:53.320Z,97
2022-12-23T08:05:53.236Z,97
2022-12-23T08:06:53.258Z,97
2022-12-23T08:07:53.245Z,97
2022-12-23T08:08:53.229Z,96
2022-12-23T08:09:53.280Z,96
2022-12-23T08:10:53.229Z,96
2022-12-23T08:11:53.224Z,96
2022-12-23T08:12:53.247Z,97
2022-12-23T08:13:53.277Z,97
2022-12-23T08:14:53.265Z,97
2022-12-23T08:15:53.242Z,97
2022-12-23T08:16:53.330Z,97
2022-12-23T08:17:53.229Z,97
2022-12-23T08:18:53.241Z,97
2022-12-23T08:19:53.226Z,97
2022-12-23T08:20:53.228Z,97
2022-12-23T08:21:53.276Z,97
2022-12-23T08:22:53.328Z,97
2022-12-23T08:23:53.241Z,97
2022-12-23T08:24:53.269Z,97
2022-12-23T08:25:53.238Z,97
2022-12-23T08:26:53.237Z,97
2022-12-23T08:27:53.228Z,97
2022-12-23T08:28:53.384Z,97
2022-12-23T08:29:53.235Z,97
2022-12-23T08:30:53.285Z,97
2022-12-23T08:31:53.254Z,97
2022-12-23T08:32:53.248Z,97
2022-12-23T08:33:53.248Z,97
2022-12-23T08:34:53.274Z,96
2022-12-23T08:35:53.493Z,96
2022-12-23T08:36:53.254Z,96
2022-12-23T08:37:53.304Z,96
2022-12-23T08:38:53.372Z,96
2022-12-23T08:39:53.339Z,96
2022-12-23T08:40:53.273Z,96
2022-12-23T08:41:53.314Z,96
2022-12-23T08:42:53.302Z,96
2022-12-23T08:43:53.273Z,96
2022-12-23T08:44:53.334Z,96
2022-12-23T08:45:53.461Z,96
2022-12-23T08:46:53.295Z,96
2022-12-23T08:47:53.316Z,96
2022-12-23T08:48:53.324Z,96
2022-12-23T08:49:53.322Z,96
2022-12-23T08:50:53.338Z,96
2022-12-23T08:51:53.345Z,96
2022-12-23T08:52:53.315Z,96
2022-12-23T08:53:58.038Z,96
2022-12-23T08:54:53.365Z,96
2022-12-23T08:55:53.318Z,95
2022-12-23T08:56:53.327Z,95
2022-12-23T08:57:53.329Z,95
2022-12-23T08:58:53.326Z,95
2022-12-23T08:59:53.334Z,95
2022-12-23T09:00:53.397Z,95
2022-12-23T09:01:53.512Z,95
2022-12-23T09:02:53.460Z,95
2022-12-23T09:03:53.369Z,95
2022-12-23T09:04:53.335Z,95
2022-12-23T09:05:53.352Z,95
2022-12-23T09:06:53.332Z,95
2022-12-23T09:07:53.324Z,95
2022-12-23T09:08:53.375Z,95
2022-12-23T09:09:53.388Z,95
2022-12-23T09:10:53.371Z,95
2022-12-23T09:11:53.335Z,94
2022-12-23T09:12:53.330Z,94
2022-12-23T09:13:53.359Z,94
2022-12-23T09:14:53.363Z,94
2022-12-23T09:15:53.344Z,94
2022-12-23T09:16:53.391Z,94
2022-12-23T09:17:53.324Z,94
2022-12-23T09:18:53.356Z,94
2022-12-23T09:19:53.562Z,94
2022-12-23T09:20:53.395Z,94
2022-12-23T09:21:53.363Z,94
2022-12-23T09:22:53.336Z,94
2022-12-23T09:23:53.473Z,94
2022-12-23T09:24:53.528Z,94
2022-12-23T09:25:53.325Z,94
2022-12-23T09:26:53.512Z,93
2022-12-23T09:27:53.362Z,93
2022-12-23T09:28:53.408Z,93
2022-12-23T09:29:53.383Z,93
2022-12-23T09:30:53.425Z,93
2022-12-23T09:31:53.417Z,93
2022-12-23T09:32:53.363Z,93
2022-12-23T09:33:53.515Z,93
2022-12-23T09:34:53.390Z,93
2022-12-23T09:35:53.351Z,93
2022-12-23T09:36:55.377Z,93
2022-12-23T09:37:53.381Z,93
2022-12-23T09:38:53.375Z,93
2022-12-23T09:39:53.442Z,93
2022-12-23T09:40:53.363Z,93
2022-12-23T09:41:53.372Z,93
2022-12-23T09:42:53.413Z,93
2022-12-23T09:43:53.458Z,93
2022-12-23T09:44:53.408Z,93
2022-12-23T09:45:53.404Z,93
2022-12-23T09:46:53.506Z,93
2022-12-23T09:47:53.588Z,93
2022-12-23T09:48:53.488Z,93
2022-12-23T09:49:53.572Z,93
2022-12-23T09:50:53.465Z,93
2022-12-23T09:51:53.537Z,93
2022-12-23T09:52:53.531Z,93
2022-12-23T09:53:53.727Z,92
2022-12-23T09:54:53.499Z,92
2022-12-23T09:55:53.590Z,92
2022-12-23T09:56:53.539Z,92
2022-12-23T09:57:53.740Z,92
2022-12-23T09:58:53.582Z,92
2022-12-23T09:59:53.613Z,92
2022-12-23T10:00:53.541Z,92
2022-12-23T10:01:53.719Z,92
2022-12-23T10:02:53.713Z,92
2022-12-23T10:03:53.825Z,92
2022-12-23T10:04:53.614Z,92
2022-12-23T10:05:53.583Z,92
2022-12-23T10:06:56.289Z,92
2022-12-23T10:07:53.559Z,92
2022-12-23T10:08:53.596Z,92
2022-12-23T10:09:53.600Z,92
2022-12-23T10:10:53.568Z,92
2022-12-23T10:11:53.582Z,92
2022-12-23T10:12:53.661Z,92
2022-12-23T10:13:53.613Z,91
2022-12-23T10:14:53.614Z,91
2022-12-23T10:15:53.721Z,91
2022-12-23T10:16:53.577Z,92
2022-12-23T10:17:53.734Z,92
2022-12-23T10:18:53.592Z,92
2022-12-23T10:19:53.694Z,92
2022-12-23T10:20:53.567Z,91
2022-12-23T10:21:53.641Z,91
2022-12-23T10:22:53.616Z,91
2022-12-23T10:23:53.619Z,91
2022-12-23T10:24:53.633Z,91
2022-12-23T10:25:53.615Z,91
2022-12-23T10:26:53.592Z,91
2022-12-23T10:27:53.601Z,91
2022-12-23T10:28:53.605Z,92
2022-12-23T10:29:53.659Z,92
2022-12-23T10:31:17.022Z,92
2022-12-23T10:31:53.630Z,92
2022-12-23T10:32:53.617Z,92
2022-12-23T10:33:53.608Z,92
2022-12-23T10:34:53.620Z,93
2022-12-23T10:35:53.642Z,93
2022-12-23T10:36:53.621Z,93
2022-12-23T10:37:53.623Z,93
2022-12-23T10:38:53.594Z,93
2022-12-23T10:39:53.794Z,92
2022-12-23T10:40:53.613Z,92
2022-12-23T10:41:53.606Z,92
2022-12-23T10:42:53.652Z,92
2022-12-23T10:43:53.706Z,92
2022-12-23T10:44:53.674Z,92
2022-12-23T10:45:53.674Z,92
2022-12-23T10:46:53.744Z,93
2022-12-23T10:47:53.640Z,93
2022-12-23T10:48:53.603Z,93
2022-12-23T10:49:53.671Z,92
2022-12-23T10:50:53.628Z,92
2022-12-23T10:51:53.627Z,92
2022-12-23T10:52:53.632Z,92
2022-12-23T10:53:53.664Z,92
2022-12-23T10:54:53.679Z,92
2022-12-23T10:55:53.702Z,92
2022-12-23T10:56:53.654Z,93
2022-12-23T10:57:53.800Z,93
2022-12-23T10:58:53.740Z,93
2022-12-23T10:59:53.806Z,93
2022-12-23T11:00:53.827Z,93
2022-12-23T11:01:54.045Z,93
2022-12-23T11:02:53.857Z,93
2022-12-23T11:03:53.902Z,94
2022-12-23T11:04:53.811Z,94
2022-12-23T11:05:53.715Z,94
2022-12-23T11:07:11.030Z,94
2022-12-23T11:07:53.692Z,94
2022-12-23T11:08:53.767Z,94
2022-12-23T11:09:53.820Z,94
2022-12-23T11:10:53.704Z,93
2022-12-23T11:11:53.726Z,93
2022-12-23T11:12:53.767Z,93
2022-12-23T11:13:53.706Z,93
2022-12-23T11:14:53.740Z,93
2022-12-23T11:15:53.763Z,93
2022-12-23T11:16:53.784Z,93
2022-12-23T11:17:53.701Z,93
2022-12-23T11:18:53.723Z,93
2022-12-23T11:19:53.754Z,93
2022-12-23T11:20:53.702Z,93
2022-12-23T11:21:53.744Z,93
2022-12-23T11:22:53.783Z,93
2022-12-23T11:23:53.758Z,92
2022-12-23T11:24:53.765Z,92
2022-12-23T11:25:53.712Z,92
2022-12-23T11:26:53.753Z,92
2022-12-23T11:27:53.767Z,93
2022-12-23T11:28:53.745Z,93
2022-12-23T11:29:53.761Z,93
2022-12-23T11:30:56.442Z,93
2022-12-23T11:31:53.898Z,93
2022-12-23T11:32:53.741Z,93
2022-12-23T11:33:53.755Z,93
2022-12-23T11:34:53.843Z,93
2022-12-23T11:35:53.729Z,93
2022-12-23T11:36:55.818Z,93
2022-12-23T11:37:53.737Z,93
2022-12-23T11:38:53.744Z,93
2022-12-23T11:39:53.774Z,93
2022-12-23T11:40:53.749Z,94
2022-12-23T11:41:53.762Z,94
2022-12-23T11:42:55.394Z,94
2022-12-23T11:43:53.779Z,94
2022-12-23T11:44:53.789Z,94
2022-12-23T11:45:54.017Z,94
2022-12-23T11:46:53.893Z,94
2022-12-23T11:47:53.797Z,94
2022-12-23T11:48:54.942Z,94
2022-12-23T11:49:53.895Z,94
2022-12-23T11:50:53.818Z,94
2022-12-23T11:51:53.789Z,94
2022-12-23T11:52:53.780Z,94
2022-12-23T11:53:53.812Z,94
2022-12-23T11:54:54.638Z,94
2022-12-23T11:55:53.909Z,95
2022-12-23T11:56:53.841Z,95
2022-12-23T11:57:53.940Z,95
2022-12-23T11:58:53.991Z,95
2022-12-23T11:59:53.952Z,94
2022-12-23T12:00:55.943Z,94
2022-12-23T12:01:53.966Z,94
2022-12-23T12:02:54.060Z,95
2022-12-23T12:03:54.065Z,95
2022-12-23T12:04:53.942Z,95
2022-12-23T12:05:54.000Z,95
2022-12-23T12:06:56.526Z,95
2022-12-23T12:07:53.955Z,95
2022-12-23T12:08:53.869Z,95
2022-12-23T12:09:53.956Z,95
2022-12-23T12:10:53.912Z,95
2022-12-23T12:11:53.950Z,95
2022-12-23T12:12:55.011Z,95
2022-12-23T12:13:54.005Z,95
2022-12-23T12:14:53.924Z,95
2022-12-23T12:15:53.911Z,95
2022-12-23T12:16:53.967Z,95
2022-12-23T12:17:54.054Z,95
2022-12-23T12:18:55.786Z,95
2022-12-23T12:19:54.084Z,95
2022-12-23T12:20:53.917Z,95
2022-12-23T12:21:54.095Z,95
2022-12-23T12:22:53.999Z,95
2022-12-23T12:24:08.592Z,95
2022-12-23T12:24:53.959Z,95
2022-12-23T12:25:54.020Z,95
2022-12-23T12:26:53.960Z,96
2022-12-23T12:27:54.228Z,96
2022-12-23T12:28:54.077Z,96
2022-12-23T12:29:54.132Z,96
2022-12-23T12:30:54.057Z,96
2022-12-23T12:31:54.078Z,96
2022-12-23T12:32:54.055Z,96
2022-12-23T12:33:54.174Z,96
2022-12-23T12:34:54.242Z,96
2022-12-23T12:35:55.934Z,96
2022-12-23T12:36:54.155Z,96
2022-12-23T12:37:54.476Z,96
2022-12-23T12:38:54.313Z,96
2022-12-23T12:39:54.315Z,96
2022-12-23T12:40:54.289Z,96
2022-12-23T12:41:57.260Z,96
2022-12-23T12:42:54.330Z,96
2022-12-23T12:43:54.378Z,96
2022-12-23T12:44:54.389Z,96
2022-12-23T12:45:54.361Z,97
2022-12-23T12:46:54.318Z,97
2022-12-23T12:47:56.961Z,97
2022-12-23T12:48:54.295Z,97
2022-12-23T12:49:54.351Z,97
2022-12-23T12:50:54.377Z,97
2022-12-23T12:51:54.446Z,97
2022-12-23T12:52:54.314Z,97
2022-12-23T12:53:55.391Z,97
2022-12-23T12:54:54.384Z,97
2022-12-23T12:55:54.432Z,97
2022-12-23T12:56:54.296Z,97
2022-12-23T12:57:54.465Z,97
2022-12-23T12:58:54.300Z,97
2022-12-23T12:59:57.430Z,97
2022-12-23T13:00:54.345Z,97
2022-12-23T13:01:54.398Z,97
2022-12-23T13:02:54.561Z,97
2022-12-23T13:03:54.365Z,98
2022-12-23T13:04:54.338Z,98
2022-12-23T13:05:54.698Z,98
2022-12-23T13:06:54.330Z,98
2022-12-23T13:07:54.329Z,98
2022-12-23T13:08:54.305Z,98
2022-12-23T13:09:54.509Z,98
2022-12-23T13:10:54.370Z,98
2022-12-23T13:11:54.369Z,98
2022-12-23T13:12:54.375Z,98
2022-12-23T13:13:54.359Z,98
2022-12-23T13:14:54.362Z,98
2022-12-23T13:15:54.351Z,98
2022-12-23T13:16:54.379Z,98
2022-12-23T13:17:56.587Z,98
2022-12-23T13:18:54.329Z,98
2022-12-23T13:19:54.396Z,98
2022-12-23T13:20:54.330Z,98
2022-12-23T13:21:54.421Z,98
2022-12-23T13:22:54.320Z,98
2022-12-23T13:23:57.012Z,98
2022-12-23T13:24:54.356Z,98
2022-12-23T13:25:54.344Z,98
2022-12-23T13:26:54.392Z,98
2022-12-23T13:27:54.349Z,98
2022-12-23T13:28:54.369Z,98
2022-12-23T13:29:57.923Z,98
2022-12-23T13:30:54.448Z,98
2022-12-23T13:31:54.628Z,98
2022-12-23T13:32:54.342Z,98
2022-12-23T13:33:54.356Z,98
2022-12-23T13:34:54.421Z,98
2022-12-23T13:35:56.342Z,98
2022-12-23T13:36:54.466Z,98
2022-12-23T13:37:54.418Z,98
2022-12-23T13:38:54.412Z,98
2022-12-23T13:39:54.448Z,98
2022-12-23T13:40:54.440Z,98
2022-12-23T13:41:57.353Z,98
2022-12-23T13:42:54.502Z,98
2022-12-23T13:43:54.426Z,98
2022-12-23T13:44:54.407Z,98
2022-12-23T13:45:54.458Z,98
2022-12-23T13:46:54.404Z,98
2022-12-23T13:47:57.216Z,98
2022-12-23T13:48:54.460Z,98
2022-12-23T13:49:54.440Z,98
2022-12-23T13:50:54.414Z,98
2022-12-23T13:51:54.466Z,98
2022-12-23T13:52:54.426Z,98
2022-12-23T13:53:56.907Z,98
2022-12-23T13:54:54.395Z,98
2022-12-23T13:55:54.439Z,98
2022-12-23T13:56:54.450Z,98
2022-12-23T13:57:54.556Z,98
2022-12-23T13:58:54.423Z,98
2022-12-23T13:59:57.304Z,98
2022-12-23T14:00:54.705Z,98
2022-12-23T14:01:54.515Z,98
2022-12-23T14:02:54.395Z,98
2022-12-23T14:03:54.456Z,98
2022-12-23T14:04:54.498Z,98
2022-12-23T14:05:54.483Z,98
2022-12-23T14:06:54.403Z,98
2022-12-23T14:07:54.503Z,98
2022-12-23T14:08:54.440Z,98
2022-12-23T14:09:54.471Z,98
2022-12-23T14:10:54.420Z,98
2022-12-23T14:11:55.470Z,98
2022-12-23T14:12:54.411Z,98
2022-12-23T14:13:54.487Z,98
2022-12-23T14:14:54.456Z,98
2022-12-23T14:15:54.469Z,98